Time,TemperatureF,DewpointF,PressureIn,WindDirection,WindDirectionDegrees,WindSpeedMPH,WindSpeedGustMPH,Humidity,HourlyPrecipIn,Conditions,Clouds,dailyrainin,SoftwareType,DateUTC
2013-07-19 00:01:00,71.0,34.0,-100.00,North,357,4.0,7.0,26,-99.99,,,-99.99,,2013-07-19 07:01:00,
2013-07-19 00:12:00,71.0,33.0,-100.00,North,11,3.0,5.0,25,-99.99,,,-99.99,,2013-07-19 07:12:00,
2013-07-19 00:22:00,69.0,32.0,-100.00,North,358,5.0,7.0,25,-99.99,,,-99.99,,2013-07-19 07:22:00,
2013-07-19 00:32:00,70.0,33.0,-100.00,North,4,4.0,5.0,25,-99.99,,,-99.99,,2013-07-19 07:32:00,
2013-07-19 00:43:00,70.0,33.0,-100.00,North,4,4.0,5.0,25,-99.99,,,-99.99,,2013-07-19 07:43:00,
2013-07-19 00:53:00,69.0,31.0,-100.00,North,10,2.0,4.0,24,-99.99,,,-99.99,,2013-07-19 07:53:00,
2013-07-19 01:01:00,69.0,31.0,-100.00,North,10,2.0,4.0,24,-99.99,,,-99.99,,2013-07-19 08:01:00,
2013-07-19 01:11:00,70.0,32.0,-100.00,NNE,16,3.0,6.0,24,-99.99,,,-99.99,,2013-07-19 08:11:00,
2013-07-19 01:21:00,69.0,27.0,-100.00,North,358,3.0,5.0,21,-99.99,,,-99.99,,2013-07-19 08:21:00,
2013-07-19 01:30:00,70.0,26.0,-100.00,NNW,348,4.0,5.0,19,-99.99,,,-99.99,,2013-07-19 08:30:00,
2013-07-19 01:32:00,70.0,26.0,-100.00,North,353,2.0,5.0,19,-99.99,,,-99.99,,2013-07-19 08:32:00,
2013-07-19 01:43:00,70.0,25.0,-100.00,North,357,4.0,6.0,18,-99.99,,,-99.99,,2013-07-19 08:43:00,
2013-07-19 02:02:00,70.0,26.0,-100.00,NNW,348,4.0,5.0,19,-99.99,,,-99.99,,2013-07-19 09:02:00,
2013-07-19 02:11:00,70.0,26.0,-100.00,NNW,348,4.0,5.0,19,-99.99,,,-99.99,,2013-07-19 09:11:00,
2013-07-19 02:22:00,70.0,26.0,-100.00,NNW,348,4.0,5.0,19,-99.99,,,-99.99,,2013-07-19 09:22:00,
2013-07-19 02:43:00,71.0,25.0,-100.00,North,2,3.0,5.0,18,-99.99,,,-99.99,,2013-07-19 09:43:00,
2013-07-19 02:52:00,71.0,21.0,-100.00,North,351,3.0,5.0,15,-99.99,,,-99.99,,2013-07-19 09:52:00,
2013-07-19 03:01:00,69.0,18.0,-100.00,North,4,3.0,5.0,14,-99.99,,,-99.99,,2013-07-19 10:01:00,
2013-07-19 03:11:00,69.0,18.0,-100.00,North,4,3.0,5.0,14,-99.99,,,-99.99,,2013-07-19 10:11:00,
2013-07-19 03:22:00,69.0,18.0,-100.00,North,4,3.0,5.0,14,-99.99,,,-99.99,,2013-07-19 10:22:00,
2013-07-19 03:32:00,68.0,19.0,-100.00,North,3,3.0,6.0,15,-99.99,,,-99.99,,2013-07-19 10:32:00,
2013-07-19 03:43:00,70.0,23.0,-100.00,North,4,3.0,4.0,17,-99.99,,,-99.99,,2013-07-19 10:43:00,
2013-07-19 03:52:00,71.0,27.0,-100.00,North,5,3.0,6.0,19,-99.99,,,-99.99,,2013-07-19 10:52:00,
2013-07-19 04:02:00,71.0,27.0,-100.00,North,5,3.0,6.0,19,-99.99,,,-99.99,,2013-07-19 11:02:00,
2013-07-19 04:12:00,71.0,31.0,-100.00,North,358,3.0,5.0,23,-99.99,,,-99.99,,2013-07-19 11:12:00,
2013-07-19 04:22:00,70.0,32.0,-100.00,North,5,2.0,5.0,24,-99.99,,,-99.99,,2013-07-19 11:22:00,
2013-07-19 04:32:00,70.0,32.0,-100.00,North,5,2.0,5.0,24,-99.99,,,-99.99,,2013-07-19 11:32:00,
2013-07-19 04:43:00,71.0,30.0,-100.00,NNE,27,3.0,7.0,22,-99.99,,,-99.99,,2013-07-19 11:43:00,
2013-07-19 04:52:00,71.0,30.0,-100.00,NNE,27,3.0,7.0,22,-99.99,,,-99.99,,2013-07-19 11:52:00,
2013-07-19 05:12:00,70.0,23.0,-100.00,North,354,4.0,5.0,17,-99.99,,,-99.99,,2013-07-19 12:12:00,
2013-07-19 05:22:00,70.0,23.0,-100.00,North,354,4.0,5.0,17,-99.99,,,-99.99,,2013-07-19 12:22:00,
2013-07-19 05:32:00,69.0,18.0,-100.00,North,3,4.0,8.0,14,-99.99,,,-99.99,,2013-07-19 12:32:00,
2013-07-19 05:43:00,71.0,23.0,-100.00,North,350,3.0,5.0,16,-99.99,,,-99.99,,2013-07-19 12:43:00,
2013-07-19 05:52:00,71.0,23.0,-100.00,North,350,3.0,5.0,16,-99.99,,,-99.99,,2013-07-19 12:52:00,
2013-07-19 06:02:00,71.0,23.0,-100.00,North,354,2.0,3.0,16,-99.99,,,-99.99,,2013-07-19 13:02:00,
2013-07-19 06:11:00,69.0,21.0,-100.00,North,1,3.0,4.0,16,-99.99,,,-99.99,,2013-07-19 13:11:00,
2013-07-19 06:32:00,69.0,24.0,-100.00,North,356,5.0,7.0,18,-99.99,,,-99.99,,2013-07-19 13:32:00,
2013-07-19 06:53:00,70.0,27.0,-100.00,North,359,5.0,6.0,20,-99.99,,,-99.99,,2013-07-19 13:53:00,
2013-07-19 07:01:00,71.0,30.0,-100.00,North,4,5.0,6.0,22,-99.99,,,-99.99,,2013-07-19 14:01:00,
2013-07-19 07:43:00,77.0,30.0,-100.00,North,355,3.0,6.0,18,-99.99,,,-99.99,,2013-07-19 14:43:00,
2013-07-19 07:52:00,77.0,30.0,-100.00,North,355,3.0,6.0,18,-99.99,,,-99.99,,2013-07-19 14:52:00,
2013-07-19 08:02:00,77.0,30.0,-100.00,North,355,3.0,6.0,18,-99.99,,,-99.99,,2013-07-19 15:02:00,
2013-07-19 08:11:00,76.0,23.0,-100.00,North,8,3.0,6.0,14,-99.99,,,-99.99,,2013-07-19 15:11:00,
2013-07-19 08:22:00,80.0,28.0,-100.00,NNE,14,4.0,6.0,15,-99.99,,,-99.99,,2013-07-19 15:22:00,
2013-07-19 08:52:00,81.0,22.0,-100.00,North,1,6.0,9.0,11,-99.99,,,-99.99,,2013-07-19 15:52:00,
2013-07-19 09:01:00,80.0,23.0,-100.00,NNW,347,4.0,6.0,12,-99.99,,,-99.99,,2013-07-19 16:01:00,
2013-07-19 09:11:00,80.0,23.0,-100.00,NNW,347,4.0,6.0,12,-99.99,,,-99.99,,2013-07-19 16:11:00,
2013-07-19 09:32:00,81.0,22.0,-100.00,NE,52,2.0,5.0,11,-99.99,,,-99.99,,2013-07-19 16:32:00,
2013-07-19 09:43:00,81.0,22.0,-100.00,NE,52,2.0,5.0,11,-99.99,,,-99.99,,2013-07-19 16:43:00,
2013-07-19 09:52:00,82.0,20.0,-100.00,NNE,16,3.0,5.0,10,-99.99,,,-99.99,,2013-07-19 16:52:00,
2013-07-19 10:02:00,82.0,20.0,-100.00,NNE,16,3.0,5.0,10,-99.99,,,-99.99,,2013-07-19 17:02:00,
2013-07-19 10:11:00,83.0,25.0,-100.00,South,190,3.0,5.0,12,-99.99,,,-99.99,,2013-07-19 17:11:00,
2013-07-19 10:32:00,83.0,23.0,-100.00,East,100,1.0,3.0,11,-99.99,,,-99.99,,2013-07-19 17:32:00,
2013-07-19 10:52:00,82.0,26.0,-100.00,SW,218,2.0,5.0,13,-99.99,,,-99.99,,2013-07-19 17:52:00,
2013-07-19 11:01:00,82.0,26.0,-100.00,SW,218,2.0,5.0,13,-99.99,,,-99.99,,2013-07-19 18:01:00,
2013-07-19 11:11:00,82.0,28.0,-100.00,SW,227,2.0,4.0,14,-99.99,,,-99.99,,2013-07-19 18:11:00,
2013-07-19 11:32:00,81.0,27.0,-100.00,WSW,241,4.0,6.0,14,-99.99,,,-99.99,,2013-07-19 18:32:00,
2013-07-19 11:52:00,81.0,26.0,-100.00,WSW,257,2.0,5.0,13,-99.99,,,-99.99,,2013-07-19 18:52:00,
2013-07-19 12:01:00,83.0,31.0,-100.00,SSE,155,4.0,7.0,15,-99.99,,,-99.99,,2013-07-19 19:01:00,
2013-07-19 12:11:00,84.0,30.0,-100.00,SSE,164,3.0,9.0,14,-99.99,,,-99.99,,2013-07-19 19:11:00,
2013-07-19 12:21:00,84.0,30.0,-100.00,SSE,164,3.0,9.0,14,-99.99,,,-99.99,,2013-07-19 19:21:00,
2013-07-19 12:43:00,86.0,23.0,-100.00,South,180,3.0,7.0,10,-99.99,,,-99.99,,2013-07-19 19:43:00,
2013-07-19 12:52:00,86.0,23.0,-100.00,South,180,3.0,7.0,10,-99.99,,,-99.99,,2013-07-19 19:52:00,
2013-07-19 13:01:00,86.0,23.0,-100.00,South,180,3.0,7.0,10,-99.99,,,-99.99,,2013-07-19 20:01:00,
2013-07-19 13:11:00,86.0,31.0,-100.00,SW,215,3.0,7.0,14,-99.99,,,-99.99,,2013-07-19 20:11:00,
2013-07-19 13:22:00,85.0,30.0,-100.00,WSW,241,2.0,6.0,14,-99.99,,,-99.99,,2013-07-19 20:22:00,
2013-07-19 13:33:00,86.0,29.0,-100.00,SW,219,2.0,5.0,13,-99.99,,,-99.99,,2013-07-19 20:33:00,
2013-07-19 13:43:00,86.0,29.0,-100.00,SW,225,3.0,7.0,13,-99.99,,,-99.99,,2013-07-19 20:43:00,
2013-07-19 13:52:00,86.0,29.0,-100.00,SW,225,3.0,7.0,13,-99.99,,,-99.99,,2013-07-19 20:52:00,
2013-07-19 14:01:00,89.0,30.0,-100.00,SSW,207,3.0,8.0,12,-99.99,,,-99.99,,2013-07-19 21:01:00,
2013-07-19 14:11:00,89.0,30.0,-100.00,SSW,207,3.0,8.0,12,-99.99,,,-99.99,,2013-07-19 21:11:00,
2013-07-19 14:21:00,87.0,34.0,-100.00,SSW,201,4.0,9.0,15,-99.99,,,-99.99,,2013-07-19 21:21:00,
2013-07-19 14:32:00,88.0,33.0,-100.00,SSW,192,4.0,9.0,14,-99.99,,,-99.99,,2013-07-19 21:32:00,
2013-07-19 14:52:00,87.0,28.0,-100.00,SSW,196,5.0,10.0,12,-99.99,,,-99.99,,2013-07-19 21:52:00,
2013-07-19 15:11:00,88.0,38.0,-100.00,WSW,256,2.0,6.0,17,-99.99,,,-99.99,,2013-07-19 22:11:00,
2013-07-19 15:21:00,88.0,38.0,-100.00,West,280,2.0,8.0,17,-99.99,,,-99.99,,2013-07-19 22:21:00,
2013-07-19 15:32:00,88.0,38.0,-100.00,West,280,2.0,8.0,17,-99.99,,,-99.99,,2013-07-19 22:32:00,
2013-07-19 15:42:00,89.0,32.0,-100.00,NW,305,3.0,7.0,13,-99.99,,,-99.99,,2013-07-19 22:42:00,
2013-07-19 15:52:00,89.0,32.0,-100.00,NW,305,3.0,7.0,13,-99.99,,,-99.99,,2013-07-19 22:52:00,
2013-07-19 16:11:00,85.0,46.0,-100.00,West,275,2.0,6.0,26,-99.99,,,-99.99,,2013-07-19 23:11:00,
2013-07-19 16:43:00,87.0,42.0,-100.00,NW,326,2.0,5.0,21,-99.99,,,-99.99,,2013-07-19 23:43:00,
2013-07-19 16:52:00,87.0,42.0,-100.00,NW,326,2.0,5.0,21,-99.99,,,-99.99,,2013-07-19 23:52:00,
2013-07-19 17:01:00,86.0,48.0,-100.00,North,11,2.0,6.0,27,-99.99,,,-99.99,,2013-07-20 00:01:00,
2013-07-19 17:11:00,86.0,48.0,-100.00,North,11,2.0,6.0,27,-99.99,,,-99.99,,2013-07-20 00:11:00,
2013-07-19 17:32:00,84.0,46.0,-100.00,NW,326,4.0,9.0,27,-99.99,,,-99.99,,2013-07-20 00:32:00,
2013-07-19 17:43:00,83.0,46.0,-100.00,NW,320,4.0,11.0,27,-99.99,,,-99.99,,2013-07-20 00:43:00,
2013-07-19 17:52:00,83.0,46.0,-100.00,NW,320,4.0,11.0,27,-99.99,,,-99.99,,2013-07-20 00:52:00,
2013-07-19 18:01:00,82.0,41.0,-100.00,NNW,343,4.0,9.0,23,-99.99,,,-99.99,,2013-07-20 01:01:00,
2013-07-19 18:11:00,83.0,44.0,-100.00,NW,319,4.0,7.0,25,-99.99,,,-99.99,,2013-07-20 01:11:00,
2013-07-19 18:32:00,81.0,47.0,-100.00,NW,326,3.0,7.0,30,-99.99,,,-99.99,,2013-07-20 01:32:00,
2013-07-19 18:52:00,80.0,47.0,-100.00,NNW,343,3.0,6.0,32,-99.99,,,-99.99,,2013-07-20 01:52:00,
2013-07-19 19:11:00,77.0,49.0,-100.00,North,355,4.0,7.0,38,-99.99,,,-99.99,,2013-07-20 02:11:00,
2013-07-19 19:22:00,77.0,49.0,-100.00,North,355,4.0,7.0,38,-99.99,,,-99.99,,2013-07-20 02:22:00,
2013-07-19 19:32:00,76.0,50.0,-100.00,NNW,328,3.0,5.0,40,-99.99,,,-99.99,,2013-07-20 02:32:00,
2013-07-19 19:43:00,76.0,50.0,-100.00,NNW,328,3.0,5.0,40,-99.99,,,-99.99,,2013-07-20 02:43:00,
2013-07-19 19:52:00,76.0,52.0,-100.00,NW,314,3.0,5.0,43,-99.99,,,-99.99,,2013-07-20 02:52:00,
2013-07-19 21:22:00,75.0,42.0,-100.00,NNW,336,5.0,6.0,31,-99.99,,,-99.99,,2013-07-20 04:22:00,
2013-07-19 21:33:00,75.0,41.0,-100.00,NNW,333,5.0,6.0,30,-99.99,,,-99.99,,2013-07-20 04:33:00,
2013-07-19 21:52:00,74.0,43.0,-100.00,North,352,4.0,6.0,33,-99.99,,,-99.99,,2013-07-20 04:52:00,
2013-07-19 22:11:00,74.0,46.0,-100.00,North,357,4.0,7.0,37,-99.99,,,-99.99,,2013-07-20 05:11:00,
2013-07-19 22:22:00,72.0,47.0,-100.00,North,8,2.0,3.0,41,-99.99,,,-99.99,,2013-07-20 05:22:00,
2013-07-19 22:32:00,73.0,44.0,-100.00,North,1,3.0,4.0,36,-99.99,,,-99.99,,2013-07-20 05:32:00,
2013-07-19 22:52:00,73.0,41.0,-100.00,North,11,2.0,4.0,32,-99.99,,,-99.99,,2013-07-20 05:52:00,
2013-07-19 23:01:00,73.0,41.0,-100.00,North,11,2.0,4.0,32,-99.99,,,-99.99,,2013-07-20 06:01:00,
2013-07-19 23:11:00,73.0,41.0,-100.00,North,11,2.0,4.0,32,-99.99,,,-99.99,,2013-07-20 06:11:00,
2013-07-19 23:21:00,73.0,33.0,-100.00,North,5,1.0,3.0,23,-99.99,,,-99.99,,2013-07-20 06:21:00,
2013-07-19 23:32:00,71.0,39.0,-100.00,North,3,2.0,4.0,31,-99.99,,,-99.99,,2013-07-20 06:32:00,
2013-07-19 23:43:00,71.0,33.0,-100.00,NNE,17,1.0,2.0,25,-99.99,,,-99.99,,2013-07-20 06:43:00,
2013-07-19 23:52:00,71.0,33.0,-100.00,NNE,17,1.0,2.0,25,-99.99,,,-99.99,,2013-07-20 06:52:00,